Time;durP1;ratioP1;P1;durP2;ratioP2;P2;SDS_P1;SDS_P2;PMS_P1;PMS_P2;Temp;Humidity;BMP_temperature;BMP_pressure;BME280_temperature;BME280_humidity;BME280_pressure;Samples;Min_cycle;Max_cycle;Signal;HPM_P1;HPM_P2
2022/12/13 00:02:28;;;;;;;;;72.25;59.75;;;;;4.23;51.29;99164.44;5029167;28;8865;-80
2022/12/13 00:04:58;;;;;;;;;66.50;54.00;;;;;4.22;51.25;99168.72;5027966;28;8853;-80
2022/12/13 00:07:26;;;;;;;;;76.00;59.00;;;;;4.23;50.85;99160.13;5036325;28;8835;-81
2022/12/13 00:09:55;;;;;;;;;70.00;55.00;;;;;4.20;51.19;99161.81;5060336;28;11254;-81
2022/12/13 00:12:24;;;;;;;;;67.00;54.25;;;;;4.18;51.22;99159.19;5027463;28;8937;-79
2022/12/13 00:14:52;;;;;;;;;75.25;59.00;;;;;4.18;51.20;99164.38;5028522;28;8854;-79
2022/12/13 00:17:21;;;;;;;;;73.75;58.25;;;;;4.17;51.12;99165.19;5027901;28;8839;-80
2022/12/13 00:19:50;;;;;;;;;64.50;52.00;;;;;4.14;51.50;99170.31;5029371;28;8864;-80
2022/12/13 00:22:20;;;;;;;;;58.25;51.75;;;;;4.17;51.32;99172.06;5031141;28;8890;-78
2022/12/13 00:24:48;;;;;;;;;57.75;48.75;;;;;4.16;51.09;99175.47;5029027;28;8860;-80
2022/12/13 00:27:17;;;;;;;;;58.50;51.75;;;;;4.18;51.01;99177.25;5028646;28;9526;-78
2022/12/13 00:29:46;;;;;;;;;73.50;61.00;;;;;4.15;51.32;99176.34;5029348;28;9025;-79
2022/12/13 00:32:15;;;;;;;;;73.50;58.25;;;;;4.16;51.19;99178.94;5027948;28;8860;-82
2022/12/13 00:34:43;;;;;;;;;69.00;57.00;;;;;4.15;51.42;99179.78;5027870;28;8883;-79
2022/12/13 00:37:12;;;;;;;;;83.50;65.75;;;;;4.17;51.17;99179.81;5027440;28;8870;-81
2022/12/13 00:39:42;;;;;;;;;77.50;62.50;;;;;4.13;51.21;99172.84;5028579;28;8937;-80
2022/12/13 00:42:11;;;;;;;;;66.75;55.00;;;;;4.17;51.02;99183.25;5027435;28;8929;-79
2022/12/13 00:44:40;;;;;;;;;76.25;62.50;;;;;4.19;51.10;99188.44;5028241;28;8839;-82
2022/12/13 00:47:08;;;;;;;;;76.00;56.75;;;;;4.06;50.94;99184.75;5010771;28;8875;-81
2022/12/13 00:49:37;;;;;;;;;81.00;61.75;;;;;3.98;51.18;99174.28;5027043;28;8855;-81
2022/12/13 00:52:06;;;;;;;;;67.25;55.50;;;;;4.02;51.37;99191.56;5030413;28;8847;-81
2022/12/13 00:54:34;;;;;;;;;75.25;59.50;;;;;4.02;51.49;99188.13;5031320;28;9658;-82
2022/12/13 00:57:04;;;;;;;;;78.50;60.25;;;;;4.00;51.17;99189.81;4981460;28;8856;-81
2022/12/13 00:59:33;;;;;;;;;79.50;61.50;;;;;4.02;51.44;99196.72;5031734;28;8901;-82
2022/12/13 01:02:02;;;;;;;;;77.75;64.25;;;;;4.02;51.68;99195.84;5063366;28;8855;-81
2022/12/13 01:04:30;;;;;;;;;72.25;59.25;;;;;4.03;51.35;99197.63;5014381;28;10016;-81
2022/12/13 01:06:59;;;;;;;;;72.25;59.50;;;;;4.02;51.54;99194.13;4996669;28;8871;-81
2022/12/13 01:09:29;;;;;;;;;78.00;60.25;;;;;4.02;51.50;99196.72;5038007;28;8856;-81
2022/12/13 01:11:59;;;;;;;;;72.25;59.25;;;;;4.04;51.40;99197.63;5033964;28;8875;-82
2022/12/13 01:14:30;;;;;;;;;80.75;61.75;;;;;4.08;51.56;99194.28;5033471;28;8980;-80
2022/12/13 01:16:59;;;;;;;;;69.75;53.75;;;;;4.02;51.60;99196.72;5016080;28;8899;-80
2022/12/13 01:19:29;;;;;;;;;79.00;59.75;;;;;4.00;51.34;99195.81;5049022;28;8953;-80
2022/12/13 01:22:00;;;;;;;;;68.50;56.50;;;;;3.99;51.72;99203.53;5012918;28;8958;-84
2022/12/13 01:24:29;;;;;;;;;77.75;60.25;;;;;4.00;51.67;99208.72;5012744;28;8975;-80
2022/12/13 01:26:58;;;;;;;;;76.00;62.00;;;;;3.99;51.20;99196.69;5012833;28;8857;-80
2022/12/13 01:29:28;;;;;;;;;65.25;53.25;;;;;4.00;51.76;99195.81;5012683;28;8849;-81
2022/12/13 01:31:57;;;;;;;;;77.25;63.50;;;;;4.01;51.51;99205.31;5011920;28;8845;-81
2022/12/13 01:34:27;;;;;;;;;78.25;61.50;;;;;4.00;51.28;99205.28;5028845;28;8869;-80
2022/12/13 01:36:56;;;;;;;;;87.00;66.25;;;;;3.90;51.36;99210.25;5012015;28;8871;-82
2022/12/13 01:39:27;;;;;;;;;85.25;64.75;;;;;3.94;51.42;99205.16;5011873;28;8845;-81
2022/12/13 01:41:58;;;;;;;;;83.25;64.75;;;;;3.90;51.29;99217.13;4995547;28;8872;-81
2022/12/13 01:45:01;;;;;;;;;85.25;66.50;;;;;4.06;51.20;99211.44;4995294;28;8854;-79
2022/12/13 01:47:36;;;;;;;;;76.25;61.50;;;;;3.97;51.99;99213.84;4915095;29;8885;-80
2022/12/13 01:50:10;;;;;;;;;83.33;66.67;;;;;3.93;51.76;99206.84;4882830;29;8882;-78
2022/12/13 01:52:41;;;;;;;;;76.50;62.00;;;;;3.94;51.58;99197.41;4920604;28;9026;-79
2022/12/13 01:55:12;;;;;;;;;83.00;65.25;;;;;3.94;51.93;99202.59;4950672;28;8946;-80
2022/12/13 01:57:46;;;;;;;;;82.25;64.75;;;;;3.92;51.79;99199.09;4934352;28;8862;-79
2022/12/13 02:00:17;;;;;;;;;78.75;62.50;;;;;3.86;51.90;99200.72;4950557;28;8858;-81
2022/12/13 02:02:48;;;;;;;;;84.67;67.67;;;;;3.86;52.14;99202.44;4903271;28;8865;-80
2022/12/13 02:05:25;;;;;;;;;78.00;63.00;;;;;3.90;52.12;99199.06;4933860;28;9110;-81
2022/12/13 02:07:55;;;;;;;;;87.33;68.33;;;;;3.85;52.17;99201.53;4932949;28;8954;-81
2022/12/13 02:10:25;;;;;;;;;82.25;65.00;;;;;3.89;52.37;99199.88;4957865;28;8988;-79
2022/12/13 02:12:54;;;;;;;;;74.00;60.67;;;;;3.83;52.24;99203.22;4954112;28;8847;-82
2022/12/13 02:15:32;;;;;;;;;86.00;68.33;;;;;3.86;52.52;99198.13;4937397;28;9187;-79
2022/12/13 02:18:19;;;;;;;;;61.67;51.67;;;;;3.88;52.35;99191.28;4952819;28;9808;-80
2022/12/13 02:21:08;;;;;;;;;77.00;63.00;;;;;3.92;52.53;99187.06;4969009;28;9024;-79
2022/12/13 02:24:28;;;;;;;;;87.33;69.00;;;;;3.95;52.22;99186.25;4980134;28;8851;-79
2022/12/13 02:27:10;;;;;;;;;83.33;67.33;;;;;3.91;52.35;99182.72;5012982;28;9043;-79
2022/12/13 02:30:13;;;;;;;;;78.33;63.33;;;;;3.91;51.98;99185.31;5045573;28;9009;-82
2022/12/13 02:32:52;;;;;;;;;83.33;67.00;;;;;3.87;52.19;99192.13;4917257;28;9013;-81
2022/12/13 02:35:26;;;;;;;;;72.67;61.67;;;;;3.82;52.19;99178.28;4934987;28;8981;-78
2022/12/13 02:38:04;;;;;;;;;84.67;70.00;;;;;3.85;52.51;99180.91;4933673;28;9095;-80
2022/12/13 02:40:38;;;;;;;;;75.33;61.33;;;;;3.81;52.57;99180.81;4921961;28;9204;-79
2022/12/13 02:43:13;;;;;;;;;81.00;63.33;;;;;3.82;52.70;99186.03;4922940;28;8984;-81
2022/12/13 02:45:46;;;;;;;;;44.33;23.33;;;;;3.82;52.09;99178.28;4954776;28;9028;-79
2022/12/13 02:48:21;;;;;;;;;90.00;70.00;;;;;3.83;52.41;99189.47;4968604;28;9282;-82
2022/12/13 02:50:53;;;;;;;;;81.00;62.33;;;;;3.73;52.34;99178.09;4930002;29;9279;-80
2022/12/13 02:53:24;;;;;;;;;88.33;65.67;;;;;3.75;52.43;99176.41;4929912;29;9036;-81
2022/12/13 02:55:53;;;;;;;;;89.33;70.67;;;;;3.68;52.22;99175.38;4936184;29;9297;-81
2022/12/13 02:58:27;;;;;;;;;84.67;68.67;;;;;3.74;52.81;99173.78;4921889;29;10424;-81
2022/12/13 03:01:09;;;;;;;;;85.00;70.67;;;;;3.72;52.94;99176.34;4923260;29;9227;-79
2022/12/13 03:04:06;;;;;;;;;87.33;69.00;;;;;3.75;52.99;99180.69;4892170;29;9292;-79
2022/12/13 03:06:45;;;;;;;;;88.33;70.00;;;;;3.77;52.77;99179.88;4930322;29;9170;-81
2022/12/13 03:09:37;;;;;;;;;90.00;69.67;;;;;3.85;52.66;99178.31;4943866;28;9258;-80
2022/12/13 03:15:07;;;;;;;;;90.00;69.33;;;;;3.81;52.55;99185.97;4894701;29;9224;-81
2022/12/13 03:17:41;;;;;;;;;89.33;69.67;;;;;3.80;52.60;99185.13;4910298;29;9186;-80
2022/12/13 03:20:16;;;;;;;;;87.67;72.00;;;;;3.82;52.20;99175.69;4894641;29;9207;-79
2022/12/13 03:22:51;;;;;;;;;90.33;70.00;;;;;3.73;52.43;99185.81;4946011;28;9255;-79
2022/12/13 03:25:20;;;;;;;;;96.33;74.33;;;;;3.35;53.07;99196.16;4951676;28;9168;-81
2022/12/13 03:28:01;;;;;;;;;90.33;69.67;;;;;3.49;53.07;99202.47;4952510;28;9327;-79
2022/12/13 03:30:31;;;;;;;;;78.67;63.67;;;;;3.53;52.93;99207.72;4952100;28;9514;-78
2022/12/13 03:33:01;;;;;;;;;88.33;72.33;;;;;3.56;53.05;99206.09;4967314;28;9527;-82
2022/12/13 03:35:32;;;;;;;;;85.33;68.00;;;;;3.61;52.99;99203.59;4951641;28;9568;-80
2022/12/13 03:38:12;;;;;;;;;90.67;70.33;;;;;3.74;52.55;99209.88;4952006;28;9403;-82
2022/12/13 03:40:56;;;;;;;;;67.33;51.00;;;;;3.84;52.77;99209.25;4951985;28;9210;-78
2022/12/13 03:43:25;;;;;;;;;84.33;64.00;;;;;3.85;52.40;99208.41;4951954;28;8944;-80
2022/12/13 03:45:54;;;;;;;;;77.33;63.67;;;;;3.89;52.58;99210.22;4951848;28;9308;-79
2022/12/13 03:48:23;;;;;;;;;88.33;67.00;;;;;3.90;52.16;99219.69;4960010;28;9105;-80
2022/12/13 03:50:54;;;;;;;;;90.00;67.67;;;;;4.02;52.13;99219.94;5049167;28;9091;-80
2022/12/13 03:53:25;;;;;;;;;81.67;66.00;;;;;3.97;52.12;99219.00;5047716;28;9311;-78
2022/12/13 03:56:03;;;;;;;;;81.67;66.33;;;;;3.97;52.02;99221.56;5048341;28;9907;-79
2022/12/13 03:58:34;;;;;;;;;89.00;68.67;;;;;3.92;51.86;99224.91;5010846;28;9005;-80
2022/12/13 04:01:07;;;;;;;;;86.00;67.33;;;;;3.90;51.70;99217.13;5028175;28;10042;-80
2022/12/13 04:03:36;;;;;;;;;85.00;67.00;;;;;4.00;51.68;99215.59;5043660;28;9259;-81
2022/12/13 04:06:07;;;;;;;;;91.33;70.00;;;;;4.01;51.63;99219.94;5029157;28;9790;-80
2022/12/13 04:08:38;;;;;;;;;87.00;66.33;;;;;4.05;51.89;99217.44;5046691;28;9105;-79
2022/12/13 04:13:50;;;;;;;;;83.00;66.50;;;;;4.12;51.54;99213.28;5028765;28;9003;-81
2022/12/13 04:16:18;;;;;;;;;83.67;65.00;;;;;4.02;51.41;99221.66;5027873;28;8994;-77
2022/12/13 04:18:48;;;;;;;;;83.67;66.67;;;;;4.07;51.70;99220.06;5012062;28;9043;-79
2022/12/13 04:21:17;;;;;;;;;84.67;66.33;;;;;4.11;51.46;99219.25;5039818;28;9012;-79
2022/12/13 04:23:46;;;;;;;;;82.67;64.00;;;;;4.15;51.49;99213.31;5030054;28;8947;-82
2022/12/13 04:26:15;;;;;;;;;88.33;66.67;;;;;4.19;51.16;99206.50;5028672;28;8969;-80
2022/12/13 04:28:44;;;;;;;;;90.67;68.00;;;;;4.20;51.04;99208.28;5030146;28;9082;-79
2022/12/13 04:31:19;;;;;;;;;103.00;83.25;;;;;4.19;51.05;99219.41;5041083;28;9446;-82
2022/12/13 04:33:48;;;;;;;;;81.00;65.33;;;;;4.20;50.80;99216.00;5049752;28;10206;-80
2022/12/13 04:36:24;;;;;;;;;81.75;66.25;;;;;4.16;50.80;99207.34;5033291;28;9081;-81
2022/12/13 04:39:01;;;;;;;;;81.75;63.75;;;;;3.91;50.36;99205.94;5029032;28;8855;-83
2022/12/13 04:41:34;;;;;;;;;83.00;62.75;;;;;3.95;50.74;99205.19;5029308;28;8855;-82
2022/12/13 04:44:05;;;;;;;;;80.25;65.50;;;;;3.93;50.88;99214.59;5028688;28;8863;-81
2022/12/13 04:46:54;;;;;;;;;93.33;72.00;;;;;3.92;50.59;99212.88;5012406;28;8911;-80
2022/12/13 04:49:29;;;;;;;;;87.75;67.50;;;;;3.89;50.51;99215.38;5028891;28;9197;-81
2022/12/13 04:51:59;;;;;;;;;81.33;66.00;;;;;3.86;50.80;99211.03;5021903;28;8869;-79
2022/12/13 04:54:31;;;;;;;;;84.00;66.33;;;;;3.81;50.53;99214.34;5024284;28;9027;-79
2022/12/13 04:57:06;;;;;;;;;73.25;58.50;;;;;3.87;50.30;99210.16;5016155;28;9040;-80
2022/12/13 04:59:36;;;;;;;;;86.00;69.00;;;;;3.92;50.32;99215.44;5029649;28;8851;-79
2022/12/13 05:02:06;;;;;;;;;88.00;71.33;;;;;3.83;50.51;99217.81;4980440;28;9186;-80
2022/12/13 05:04:35;;;;;;;;;91.00;69.00;;;;;3.77;50.39;99228.03;5046413;28;9425;-79
2022/12/13 05:07:05;;;;;;;;;85.67;67.33;;;;;3.79;50.53;99228.91;5049232;28;9221;-77
2022/12/13 05:09:33;;;;;;;;;88.33;69.67;;;;;3.80;50.71;99228.97;5050880;28;8955;-77
2022/12/13 05:12:02;;;;;;;;;96.25;75.75;;;;;3.87;50.78;99227.38;5036874;28;9402;-79
2022/12/13 05:14:31;;;;;;;;;96.25;74.50;;;;;3.71;50.66;99231.34;5016603;28;9684;-77
2022/12/13 05:17:01;;;;;;;;;100.00;78.75;;;;;3.72;50.86;99233.06;5017831;28;9470;-78
2022/12/13 05:19:30;;;;;;;;;103.25;79.25;;;;;3.74;51.05;99222.78;5035627;28;11007;-78
2022/12/13 05:22:00;;;;;;;;;91.00;70.67;;;;;3.73;50.65;99219.34;5019813;28;9978;-80
2022/12/13 05:24:31;;;;;;;;;91.00;73.00;;;;;3.80;50.70;99225.50;5020714;28;9476;-80
2022/12/13 05:27:00;;;;;;;;;82.00;63.67;;;;;3.74;50.33;99226.22;5019611;28;9406;-80
2022/12/13 05:29:49;;;;;;;;;81.25;64.50;;;;;3.77;50.02;99228.03;5035533;28;9952;-79
2022/12/13 05:32:17;;;;;;;;;75.50;63.00;;;;;3.71;50.37;99231.34;5034228;28;8889;-80
2022/12/13 05:34:46;;;;;;;;;70.75;58.50;;;;;3.71;49.91;99234.78;5035655;28;8987;-79
2022/12/13 05:37:14;;;;;;;;;82.67;67.00;;;;;3.73;50.60;99224.50;5030936;28;8863;-80
2022/12/13 05:39:45;;;;;;;;;72.25;57.75;;;;;3.64;49.94;99224.28;4992762;28;8936;-80
2022/12/13 05:42:13;;;;;;;;;86.67;66.33;;;;;3.60;50.60;99218.19;4976357;28;8977;-77
2022/12/13 05:44:42;;;;;;;;;75.67;61.33;;;;;3.66;50.67;99222.63;5030687;28;8947;-79
2022/12/13 05:47:11;;;;;;;;;34.00;30.75;;;;;3.69;50.38;99214.97;5011805;28;8955;-78
2022/12/13 05:49:39;;;;;;;;;76.33;63.00;;;;;3.73;50.28;99219.34;5011478;28;8844;-79
2022/12/13 05:52:16;;;;;;;;;76.00;62.75;;;;;3.82;50.53;99214.38;5011910;28;8987;-81
2022/12/13 05:54:46;;;;;;;;;78.00;65.25;;;;;3.77;50.31;99215.13;5011592;28;9078;-81
2022/12/13 05:57:15;;;;;;;;;79.00;63.75;;;;;3.76;50.11;99214.22;5031276;28;8844;-80
2022/12/13 05:59:44;;;;;;;;;78.25;64.25;;;;;3.78;50.63;99222.91;4999154;28;8886;-79
2022/12/13 06:02:12;;;;;;;;;77.50;59.75;;;;;3.78;50.29;99217.75;5000429;28;9611;-78
2022/12/13 06:04:48;;;;;;;;;76.00;61.67;;;;;3.79;50.45;99216.03;4987513;28;8863;-77
2022/12/13 06:07:17;;;;;;;;;83.33;64.00;;;;;3.78;50.40;99211.69;5010156;28;9030;-79
2022/12/13 06:09:47;;;;;;;;;71.50;58.25;;;;;3.81;50.00;99214.34;5010484;28;8947;-79
2022/12/13 06:12:16;;;;;;;;;87.67;67.33;;;;;3.81;50.24;99220.38;5010531;28;8882;-81
2022/12/13 06:15:00;;;;;;;;;85.67;69.00;;;;;3.82;50.48;99223.81;5009538;28;9252;-81
2022/12/13 06:17:31;;;;;;;;;84.33;69.33;;;;;3.86;50.32;99220.47;4967056;28;13379;-82
2022/12/13 06:20:02;;;;;;;;;80.33;61.67;;;;;3.86;50.25;99220.47;4989857;28;9213;-80
2022/12/13 06:22:50;;;;;;;;;85.67;68.67;;;;;3.86;49.92;99234.25;4974540;28;9025;-79
2022/12/13 06:25:21;;;;;;;;;81.50;66.00;;;;;3.88;50.01;99229.97;4980414;28;9343;-81
2022/12/13 06:27:59;;;;;;;;;84.33;67.67;;;;;3.92;50.39;99230.91;4974025;28;8883;-82
2022/12/13 06:30:29;;;;;;;;;86.75;68.50;;;;;3.93;50.21;99231.78;4990277;28;8990;-78
2022/12/13 06:32:58;;;;;;;;;88.00;70.00;;;;;3.94;50.58;99234.41;4986181;28;8868;-80
2022/12/13 06:35:27;;;;;;;;;80.67;66.33;;;;;3.99;50.19;99239.63;4985274;28;9356;-81
2022/12/13 06:37:58;;;;;;;;;80.67;65.33;;;;;3.98;50.15;99243.94;4978740;28;9180;-80
2022/12/13 06:40:31;;;;;;;;;84.00;66.00;;;;;4.02;50.13;99240.56;5010164;28;9111;-82
2022/12/13 06:42:59;;;;;;;;;86.67;71.00;;;;;4.01;50.30;99246.59;4960961;28;8926;-83
2022/12/13 06:45:28;;;;;;;;;97.50;73.75;;;;;4.04;50.66;99241.47;5011013;28;9178;-79
2022/12/13 06:47:57;;;;;;;;;97.00;74.75;;;;;4.03;50.70;99237.19;5009826;28;9578;-83
2022/12/13 06:50:26;;;;;;;;;94.75;74.75;;;;;4.04;50.21;99240.63;5009695;28;9654;-78
2022/12/13 06:52:54;;;;;;;;;95.75;72.75;;;;;4.07;50.12;99240.69;5026981;28;11027;-81
2022/12/13 06:55:23;;;;;;;;;97.00;76.75;;;;;4.04;50.62;99244.06;5010127;28;9933;-80
2022/12/13 06:57:53;;;;;;;;;106.75;88.25;;;;;4.10;50.07;99256.22;5009952;28;9729;-79
2022/12/13 07:00:22;;;;;;;;;108.75;92.75;;;;;4.06;50.27;99250.16;4993570;28;10373;-78
2022/12/13 07:03:04;;;;;;;;;102.75;86.50;;;;;4.08;50.17;99255.31;5001283;28;10901;-82
2022/12/13 07:05:33;;;;;;;;;114.50;92.75;;;;;4.10;49.98;99259.69;4996032;28;10952;-80
2022/12/13 07:08:02;;;;;;;;;109.00;87.50;;;;;4.16;50.22;99256.38;5022685;28;11773;-81
2022/12/13 07:10:31;;;;;;;;;105.75;86.00;;;;;4.23;49.79;99260.78;5023443;28;10886;-80
2022/12/13 07:13:01;;;;;;;;;105.75;81.50;;;;;4.34;50.05;99260.16;5004001;28;10578;-80
2022/12/13 07:15:33;;;;;;;;;110.00;92.50;;;;;4.50;49.81;99259.63;5023058;28;10643;-82
2022/12/13 07:18:02;;;;;;;;;102.25;79.75;;;;;4.57;49.17;99251.13;5024039;28;10716;-83
2022/12/13 07:20:31;;;;;;;;;104.25;81.00;;;;;4.64;49.37;99250.41;4997105;28;10250;-81
2022/12/13 07:22:59;;;;;;;;;105.50;87.75;;;;;4.72;49.23;99247.09;4957254;28;10471;-82
2022/12/13 07:25:28;;;;;;;;;107.00;88.75;;;;;4.81;48.91;99244.66;5008721;28;10496;-82
2022/12/13 07:27:59;;;;;;;;;109.00;92.00;;;;;4.94;48.88;99241.47;5010782;28;10589;-80
2022/12/13 07:30:34;;;;;;;;;123.50;108.25;;;;;5.08;48.75;99242.56;5009018;28;10709;-82
2022/12/13 07:33:09;;;;;;;;;125.25;111.75;;;;;5.10;48.47;99250.31;5007685;28;11623;-80
2022/12/13 07:35:38;;;;;;;;;115.75;102.50;;;;;5.20;48.63;99247.06;4991065;28;11600;-80
2022/12/13 07:38:08;;;;;;;;;114.50;102.75;;;;;5.28;48.15;99249.78;5023347;28;11601;-81
2022/12/13 07:40:39;;;;;;;;;99.50;77.75;;;;;5.37;47.93;99242.16;4994521;28;11325;-83
2022/12/13 07:43:10;;;;;;;;;96.25;75.50;;;;;5.45;47.41;99237.97;5009305;28;10269;-81
2022/12/13 07:45:41;;;;;;;;;100.25;79.00;;;;;5.52;47.13;99245.81;5011597;28;9948;-82
2022/12/13 07:48:09;;;;;;;;;98.50;78.25;;;;;5.60;46.87;99241.63;4989084;28;11480;-81
2022/12/13 07:50:38;;;;;;;;;107.75;86.25;;;;;5.61;46.80;99240.78;4989517;28;10226;-80
2022/12/13 07:53:08;;;;;;;;;102.75;80.50;;;;;5.71;46.82;99239.19;4972523;28;10097;-81
2022/12/13 07:55:37;;;;;;;;;103.00;84.25;;;;;5.75;46.89;99238.41;4973224;28;10268;-81
2022/12/13 07:58:07;;;;;;;;;90.50;73.00;;;;;5.70;46.72;99245.22;4989626;28;10257;-82
2022/12/13 08:00:36;;;;;;;;;90.00;73.00;;;;;5.73;46.97;99243.56;4992100;28;9740;-81
2022/12/13 08:03:06;;;;;;;;;94.50;75.25;;;;;5.82;46.58;99243.69;4977524;28;9644;-81
2022/12/13 08:05:41;;;;;;;;;102.50;79.75;;;;;5.83;46.17;99252.31;4993429;28;10237;-80
2022/12/13 08:08:10;;;;;;;;;87.00;64.67;;;;;5.62;46.36;99248.56;4977395;28;10052;-81
2022/12/13 08:10:39;;;;;;;;;51.33;45.33;;;;;5.60;46.29;99250.25;4993297;28;9475;-82
2022/12/13 08:13:08;;;;;;;;;76.00;60.67;;;;;5.51;46.18;99247.53;5009750;28;9091;-81
2022/12/13 08:15:36;;;;;;;;;78.50;60.00;;;;;5.61;46.21;99256.28;4977825;28;9069;-79
2022/12/13 08:18:07;;;;;;;;;75.00;63.00;;;;;5.53;46.36;99251.00;4977471;28;8876;-80
2022/12/13 08:20:36;;;;;;;;;90.67;70.00;;;;;5.66;46.76;99262.41;4951879;28;9042;-80
2022/12/13 08:23:05;;;;;;;;;83.67;65.67;;;;;5.60;46.22;99258.00;4935252;28;9375;-81
2022/12/13 08:25:34;;;;;;;;;83.67;65.00;;;;;5.55;46.42;99264.81;4950099;28;9262;-81
2022/12/13 08:28:02;;;;;;;;;81.50;63.50;;;;;5.58;46.77;99276.97;4973337;28;9555;-79
2022/12/13 08:30:32;;;;;;;;;74.00;61.00;;;;;5.68;46.49;99275.38;4989411;28;9087;-82
2022/12/13 08:33:01;;;;;;;;;83.25;65.50;;;;;5.84;46.53;99272.13;4973160;28;8903;-82
2022/12/13 08:35:34;;;;;;;;;77.75;62.25;;;;;5.87;46.31;99274.78;4938148;28;8943;-82
2022/12/13 08:38:03;;;;;;;;;76.75;59.25;;;;;5.92;46.01;99267.97;4945492;28;8860;-82
2022/12/13 08:40:33;;;;;;;;;59.50;50.75;;;;;5.96;46.09;99262.00;4994641;28;8843;-80
2022/12/13 08:43:02;;;;;;;;;59.25;50.50;;;;;5.88;46.06;99273.06;4994061;28;8884;-82
2022/12/13 08:45:33;;;;;;;;;67.75;53.00;;;;;5.97;45.98;99260.28;5026770;28;8848;-82
2022/12/13 08:48:02;;;;;;;;;56.25;47.75;;;;;5.99;46.33;99264.63;4976617;28;8839;-82
2022/12/13 08:50:31;;;;;;;;;46.50;42.50;;;;;6.02;45.93;99261.22;4994107;28;8866;-82
2022/12/13 08:53:01;;;;;;;;;68.00;52.50;;;;;6.16;46.26;99266.56;4997293;28;8891;-81
2022/12/13 08:55:30;;;;;;;;;59.00;49.50;;;;;6.28;45.73;99260.69;4993795;28;8930;-80
2022/12/13 08:58:07;;;;;;;;;56.50;45.00;;;;;6.36;45.99;99246.97;4993455;28;8859;-82
2022/12/13 09:00:39;;;;;;;;;62.50;51.25;;;;;6.08;46.10;99253.53;4993420;28;8859;-81
2022/12/13 09:03:08;;;;;;;;;61.25;49.75;;;;;6.17;46.20;99250.19;5012161;28;8840;-83
2022/12/13 09:05:45;;;;;;;;;60.25;46.50;;;;;6.23;46.14;99245.06;5029451;28;8979;-81
2022/12/13 09:08:15;;;;;;;;;63.25;50.25;;;;;6.10;46.56;99246.63;5028079;28;8873;-82
2022/12/13 09:10:57;;;;;;;;;57.50;49.00;;;;;5.99;46.37;99240.47;5028019;28;9565;-79
2022/12/13 09:13:27;;;;;;;;;58.75;49.00;;;;;5.96;46.43;99241.28;5011211;28;8990;-79
2022/12/13 09:16:04;;;;;;;;;61.00;51.25;;;;;6.13;46.48;99243.25;5011053;28;8843;-83
2022/12/13 09:18:42;;;;;;;;;63.50;51.75;;;;;6.06;46.45;99239.69;4995736;28;8852;-81
2022/12/13 09:21:13;;;;;;;;;60.75;48.25;;;;;6.12;45.79;99236.31;5027131;28;8928;-82
2022/12/13 09:23:51;;;;;;;;;67.00;53.00;;;;;6.12;46.03;99221.63;5034514;28;9074;-81
2022/12/13 09:26:29;;;;;;;;;63.50;51.25;;;;;6.15;45.89;99233.78;5028558;28;8945;-81
2022/12/13 09:29:06;;;;;;;;;63.00;50.00;;;;;6.32;45.37;99229.66;4993900;28;8867;-82
2022/12/13 09:31:39;;;;;;;;;53.50;44.75;;;;;6.43;44.94;99235.81;5010486;28;8844;-81
2022/12/13 09:34:09;;;;;;;;;55.00;47.00;;;;;6.53;44.60;99231.59;4993939;28;8949;-81
2022/12/13 09:36:38;;;;;;;;;49.50;40.25;;;;;6.51;44.35;99225.53;4994231;28;9558;-80
2022/12/13 09:39:10;;;;;;;;;62.25;49.50;;;;;6.61;44.77;99231.69;5026345;28;8863;-81
2022/12/13 09:41:43;;;;;;;;;64.25;52.75;;;;;6.73;44.19;99226.63;4997660;28;8997;-82
2022/12/13 09:44:16;;;;;;;;;46.75;40.50;;;;;6.74;43.71;99223.19;5024374;28;8861;-82
2022/12/13 09:47:03;;;;;;;;;56.00;45.50;;;;;6.71;43.69;99224.88;5032058;28;8871;-81
2022/12/13 09:49:44;;;;;;;;;46.75;44.50;;;;;6.78;43.06;99219.75;5032655;28;8857;-80
2022/12/13 09:52:24;;;;;;;;;62.25;51.00;;;;;6.79;43.46;99215.47;5046848;28;8946;-80
2022/12/13 09:54:56;;;;;;;;;55.50;46.75;;;;;6.85;43.43;99223.28;4993643;28;8937;-79
2022/12/13 09:57:29;;;;;;;;;59.25;47.75;;;;;6.80;43.76;99212.00;4992859;28;8859;-81
2022/12/13 10:00:04;;;;;;;;;53.75;46.50;;;;;6.94;42.78;99212.16;5010596;28;8874;-80
2022/12/13 10:02:44;;;;;;;;;65.00;52.25;;;;;7.07;42.50;99211.38;4972038;28;8842;-81
2022/12/13 10:05:21;;;;;;;;;62.50;48.00;;;;;7.13;42.85;99211.44;4972219;28;8936;-81
2022/12/13 10:08:09;;;;;;;;;42.50;40.75;;;;;7.20;42.27;99210.63;4956078;28;10132;-81
2022/12/13 10:10:39;;;;;;;;;60.75;46.00;;;;;7.13;42.62;99206.25;4971961;28;8854;-81
2022/12/13 10:13:16;;;;;;;;;62.75;49.00;;;;;7.28;42.23;99202.91;4956418;28;8873;-81
2022/12/13 10:15:50;;;;;;;;;47.00;44.25;;;;;7.38;41.97;99199.50;4972142;28;8882;-81
2022/12/13 10:18:27;;;;;;;;;59.25;47.50;;;;;7.56;41.71;99197.88;4972331;28;8866;-84
2022/12/13 10:20:56;;;;;;;;;62.75;47.75;;;;;7.55;41.51;99202.19;4992205;28;8868;-80
2022/12/13 10:23:25;;;;;;;;;53.25;44.75;;;;;7.56;41.76;99198.75;5009551;28;8860;-81
2022/12/13 10:26:16;;;;;;;;;35.75;34.50;;;;;7.64;41.99;99192.72;4993157;28;8986;-81
2022/12/13 10:29:03;;;;;;;;;44.50;41.50;;;;;7.56;40.85;99180.59;4998856;28;8849;-80
2022/12/13 10:31:40;;;;;;;;;42.50;41.00;;;;;7.59;41.13;99169.34;5011963;28;8853;-81
2022/12/13 10:34:27;;;;;;;;;52.00;43.00;;;;;7.82;41.46;99172.06;5012250;28;8845;-82
2022/12/13 10:36:55;;;;;;;;;46.75;41.00;;;;;7.90;41.51;99157.41;4988158;28;8862;-83
2022/12/13 10:39:39;;;;;;;;;43.25;39.50;;;;;8.07;40.67;99161.78;4956574;28;9583;-80
2022/12/13 10:42:14;;;;;;;;;55.00;44.25;;;;;7.91;41.09;99153.94;4934227;28;8903;-79
2022/12/13 10:45:14;;;;;;;;;53.00;45.00;;;;;7.99;41.50;99148.75;4918451;28;8877;-83
2022/12/13 10:47:45;;;;;;;;;42.75;39.50;;;;;7.92;40.38;99149.59;4929288;29;8879;-82
2022/12/13 10:50:24;;;;;;;;;50.75;44.00;;;;;8.03;40.91;99139.25;4913736;29;8867;-82
2022/12/13 10:52:54;;;;;;;;;54.50;45.00;;;;;8.15;40.41;99136.72;4929260;29;9713;-81
2022/12/13 10:55:28;;;;;;;;;56.00;47.00;;;;;8.09;40.72;99134.06;4913674;29;8887;-80
2022/12/13 10:58:01;;;;;;;;;54.25;46.25;;;;;8.13;40.31;99133.25;4913336;29;8883;-81
2022/12/13 11:00:34;;;;;;;;;56.25;45.75;;;;;8.10;40.25;99121.09;4911377;29;8869;-83
2022/12/13 11:03:03;;;;;;;;;50.25;42.25;;;;;8.13;39.99;99122.84;4912195;29;8897;-81
2022/12/13 11:05:34;;;;;;;;;48.50;41.75;;;;;8.21;40.08;99123.72;4896256;29;8897;-83
2022/12/13 11:08:13;;;;;;;;;59.75;44.00;;;;;8.28;39.55;99119.41;4897221;29;8879;-81
2022/12/13 11:10:43;;;;;;;;;51.25;44.25;;;;;8.22;39.62;99122.84;4861571;29;8965;-80
2022/12/13 11:13:25;;;;;;;;;52.75;44.50;;;;;8.36;39.75;99122.91;4878156;28;8862;-81
2022/12/13 11:15:56;;;;;;;;;66.50;51.50;;;;;8.26;39.88;99110.75;4916363;28;8917;-82
2022/12/13 11:18:26;;;;;;;;;69.25;53.75;;;;;8.18;40.29;99111.63;4932398;28;8867;-81
2022/12/13 11:21:00;;;;;;;;;61.25;50.25;;;;;8.18;40.78;99114.22;4931973;28;9613;-82
2022/12/13 11:23:33;;;;;;;;;67.75;55.75;;;;;8.30;41.19;99105.56;4916114;28;8863;-82
2022/12/13 11:26:09;;;;;;;;;65.00;54.00;;;;;8.28;40.99;99107.31;4946449;28;8877;-81
2022/12/13 11:29:01;;;;;;;;;67.25;54.50;;;;;8.12;41.35;99097.75;4950847;28;8880;-84
2022/12/13 11:31:43;;;;;;;;;59.75;50.00;;;;;8.06;41.08;99101.19;4973201;28;8882;-81
2022/12/13 11:34:22;;;;;;;;;55.00;44.25;;;;;7.87;40.76;99094.22;4957838;28;8860;-80
2022/12/13 11:36:58;;;;;;;;;59.25;48.00;;;;;7.89;40.50;99095.09;4991467;28;8867;-83
2022/12/13 11:39:32;;;;;;;;;54.25;45.50;;;;;7.59;40.48;99089.78;5007529;28;8914;-82
2022/12/13 11:42:11;;;;;;;;;46.50;42.00;;;;;7.79;40.02;99087.28;5007058;28;8852;-83
2022/12/13 11:44:49;;;;;;;;;48.25;43.50;;;;;7.68;40.34;99091.56;4991410;28;8863;-82
2022/12/13 11:47:24;;;;;;;;;48.00;43.50;;;;;7.77;40.64;99107.16;5007445;28;8847;-81
2022/12/13 11:49:54;;;;;;;;;46.75;40.25;;;;;7.73;39.54;99094.16;5023744;28;8844;-81
2022/12/13 11:52:28;;;;;;;;;43.50;39.75;;;;;7.74;40.03;99101.94;5023488;28;8922;-80
2022/12/13 11:54:59;;;;;;;;;43.75;38.00;;;;;7.68;40.17;99101.94;4991818;28;8860;-81
2022/12/13 11:57:44;;;;;;;;;31.75;30.25;;;;;7.58;39.33;99095.84;5008153;28;8864;-82
2022/12/13 12:00:27;;;;;;;;;35.25;33.25;;;;;7.58;38.73;99098.44;4991441;28;9084;-83
2022/12/13 12:03:14;;;;;;;;;36.50;32.00;;;;;7.54;38.59;99101.88;4991518;28;8859;-82
2022/12/13 12:05:48;;;;;;;;;32.25;31.75;;;;;7.42;38.66;99104.41;4991544;28;9604;-82